Troutman, North Carolina
Current Conditions -  °F | °C
As of 10:55 AM on Thursday 30 Oct 2014 (Local Time) from KSVH Reporting Station
Clear Clear  
Wind Chill: 58°   Ceiling: Unl
Heat Index: 58°   Visibility: 10mi
Dew Point: 39°   Wind: 8mph
Humidity: 50%   Direction: 50°NE
Pressure: 30.08"   Gusts: NA
Location:  35.7°N, 80.89°W
Report Text: KSVH 301455Z AUTO 05007KT 10SM CLR 14/04 A3008 RMK AO2 T01420040
Loading
Personal Weather Stations






























Interactive Weather Map
Tropical Storm Tracking
New forecast layout! Learn more

10-Day Weather Forecast

Advertisements
Track Severe Weather on mobile